sensor_id;sensor_type;location;lat;lon;timestamp;temperature;humidity
3001;DHT22;1510;51.072;6.678;2024-03-25T00:01:37;5.20;99.90
3001;DHT22;1510;51.072;6.678;2024-03-25T00:04:04;5.00;99.90
3001;DHT22;1510;51.072;6.678;2024-03-25T00:06:30;5.00;99.90
3001;DHT22;1510;51.072;6.678;2024-03-25T00:08:59;5.10;99.90
3001;DHT22;1510;51.072;6.678;2024-03-25T00:11:25;5.00;99.90
3001;DHT22;1510;51.072;6.678;2024-03-25T00:13:51;5.00;99.90
3001;DHT22;1510;51.072;6.678;2024-03-25T00:16:17;5.00;99.90
3001;DHT22;1510;51.072;6.678;2024-03-25T00:18:45;5.00;99.90
3001;DHT22;1510;51.072;6.678;2024-03-25T00:21:11;5.00;99.90
3001;DHT22;1510;51.072;6.678;2024-03-25T00:23:38;5.10;99.90
3001;DHT22;1510;51.072;6.678;2024-03-25T00:26:04;5.10;99.90
3001;DHT22;1510;51.072;6.678;2024-03-25T00:28:31;5.30;99.90
3001;DHT22;1510;51.072;6.678;2024-03-25T00:30:56;5.30;99.90
3001;DHT22;1510;51.072;6.678;2024-03-25T00:33:23;5.30;99.90
3001;DHT22;1510;51.072;6.678;2024-03-25T00:35:51;5.30;99.90
3001;DHT22;1510;51.072;6.678;2024-03-25T00:38:18;5.40;99.90
3001;DHT22;1510;51.072;6.678;2024-03-25T00:40:44;5.40;99.90
3001;DHT22;1510;51.072;6.678;2024-03-25T00:43:12;5.40;99.90
3001;DHT22;1510;51.072;6.678;2024-03-25T00:45:37;5.40;99.90
3001;DHT22;1510;51.072;6.678;2024-03-25T00:48:05;5.50;99.90
3001;DHT22;1510;51.072;6.678;2024-03-25T00:50:31;5.50;99.90
3001;DHT22;1510;51.072;6.678;2024-03-25T00:52:59;5.50;99.90
3001;DHT22;1510;51.072;6.678;2024-03-25T00:55:24;5.50;99.90
3001;DHT22;1510;51.072;6.678;2024-03-25T00:57:51;5.50;99.90
3001;DHT22;1510;51.072;6.678;2024-03-25T01:00:18;5.50;99.90
3001;DHT22;1510;51.072;6.678;2024-03-25T01:02:45;5.50;99.90
3001;DHT22;1510;51.072;6.678;2024-03-25T01:05:10;5.50;99.90
3001;DHT22;1510;51.072;6.678;2024-03-25T01:07:37;5.50;99.90
3001;DHT22;1510;51.072;6.678;2024-03-25T01:10:05;5.50;99.90
3001;DHT22;1510;51.072;6.678;2024-03-25T01:12:32;5.50;99.90
3001;DHT22;1510;51.072;6.678;2024-03-25T01:14:58;5.50;99.90
3001;DHT22;1510;51.072;6.678;2024-03-25T01:17:25;5.60;99.90
3001;DHT22;1510;51.072;6.678;2024-03-25T01:19:51;5.50;99.90
3001;DHT22;1510;51.072;6.678;2024-03-25T01:22:17;5.60;99.90
3001;DHT22;1510;51.072;6.678;2024-03-25T01:24:43;5.60;99.90
3001;DHT22;1510;51.072;6.678;2024-03-25T01:27:11;5.50;99.90
3001;DHT22;1510;51.072;6.678;2024-03-25T01:29:37;5.50;99.90
3001;DHT22;1510;51.072;6.678;2024-03-25T01:32:04;5.40;99.90
3001;DHT22;1510;51.072;6.678;2024-03-25T01:34:31;5.20;99.90
3001;DHT22;1510;51.072;6.678;2024-03-25T01:36:57;5.00;99.90
3001;DHT22;1510;51.072;6.678;2024-03-25T01:39:23;4.90;99.90
3001;DHT22;1510;51.072;6.678;2024-03-25T01:41:50;4.70;99.90
3001;DHT22;1510;51.072;6.678;2024-03-25T01:44:17;4.60;99.90
3001;DHT22;1510;51.072;6.678;2024-03-25T01:46:44;4.60;99.90
3001;DHT22;1510;51.072;6.678;2024-03-25T01:49:11;4.60;99.90
3001;DHT22;1510;51.072;6.678;2024-03-25T01:51:38;4.60;99.90
3001;DHT22;1510;51.072;6.678;2024-03-25T01:54:05;4.60;99.90
3001;DHT22;1510;51.072;6.678;2024-03-25T01:56:33;4.60;99.90
3001;DHT22;1510;51.072;6.678;2024-03-25T01:59:01;4.80;99.90
3001;DHT22;1510;51.072;6.678;2024-03-25T02:01:29;4.80;99.90
3001;DHT22;1510;51.072;6.678;2024-03-25T02:03:56;4.80;99.90
3001;DHT22;1510;51.072;6.678;2024-03-25T02:06:26;4.90;99.90
3001;DHT22;1510;51.072;6.678;2024-03-25T02:08:53;5.00;99.90
3001;DHT22;1510;51.072;6.678;2024-03-25T02:11:22;5.00;99.90
3001;DHT22;1510;51.072;6.678;2024-03-25T02:13:49;5.00;99.90
3001;DHT22;1510;51.072;6.678;2024-03-25T02:16:15;5.10;99.90
3001;DHT22;1510;51.072;6.678;2024-03-25T02:18:43;5.10;99.90
3001;DHT22;1510;51.072;6.678;2024-03-25T02:21:10;5.10;99.90
3001;DHT22;1510;51.072;6.678;2024-03-25T02:23:37;5.20;99.90
3001;DHT22;1510;51.072;6.678;2024-03-25T02:26:06;5.20;99.90
3001;DHT22;1510;51.072;6.678;2024-03-25T02:28:32;5.30;99.90
3001;DHT22;1510;51.072;6.678;2024-03-25T02:30:59;5.40;99.90
3001;DHT22;1510;51.072;6.678;2024-03-25T02:33:26;5.40;99.90
3001;DHT22;1510;51.072;6.678;2024-03-25T02:35:51;5.50;99.90
3001;DHT22;1510;51.072;6.678;2024-03-25T02:38:19;5.50;99.90
3001;DHT22;1510;51.072;6.678;2024-03-25T02:40:45;5.50;99.90
3001;DHT22;1510;51.072;6.678;2024-03-25T02:43:13;5.50;99.90
3001;DHT22;1510;51.072;6.678;2024-03-25T02:45:40;5.50;99.90
3001;DHT22;1510;51.072;6.678;2024-03-25T02:48:07;5.50;99.90
3001;DHT22;1510;51.072;6.678;2024-03-25T02:50:32;5.50;99.90
3001;DHT22;1510;51.072;6.678;2024-03-25T02:52:59;5.50;99.90
3001;DHT22;1510;51.072;6.678;2024-03-25T02:55:25;5.50;99.90
3001;DHT22;1510;51.072;6.678;2024-03-25T02:57:52;5.40;99.90
3001;DHT22;1510;51.072;6.678;2024-03-25T03:00:19;5.30;99.90
3001;DHT22;1510;51.072;6.678;2024-03-25T03:02:46;5.30;99.90
3001;DHT22;1510;51.072;6.678;2024-03-25T03:05:12;5.20;99.90
3001;DHT22;1510;51.072;6.678;2024-03-25T03:07:38;5.20;99.90
3001;DHT22;1510;51.072;6.678;2024-03-25T03:10:05;5.10;99.90
3001;DHT22;1510;51.072;6.678;2024-03-25T03:12:32;5.00;99.90
3001;DHT22;1510;51.072;6.678;2024-03-25T03:14:58;4.90;99.90
3001;DHT22;1510;51.072;6.678;2024-03-25T03:17:26;4.80;99.90
3001;DHT22;1510;51.072;6.678;2024-03-25T03:19:52;4.80;99.90
3001;DHT22;1510;51.072;6.678;2024-03-25T03:22:18;4.70;99.90
3001;DHT22;1510;51.072;6.678;2024-03-25T03:24:44;4.60;99.90
3001;DHT22;1510;51.072;6.678;2024-03-25T03:27:11;4.50;99.90
3001;DHT22;1510;51.072;6.678;2024-03-25T03:29:37;4.50;99.90
3001;DHT22;1510;51.072;6.678;2024-03-25T03:32:04;4.40;99.90
3001;DHT22;1510;51.072;6.678;2024-03-25T03:34:31;4.30;99.90
3001;DHT22;1510;51.072;6.678;2024-03-25T03:36:58;4.30;99.90
3001;DHT22;1510;51.072;6.678;2024-03-25T03:39:24;4.20;99.90
3001;DHT22;1510;51.072;6.678;2024-03-25T03:41:51;4.20;99.90
3001;DHT22;1510;51.072;6.678;2024-03-25T03:44:16;4.20;99.90
3001;DHT22;1510;51.072;6.678;2024-03-25T03:46:43;4.10;99.90
3001;DHT22;1510;51.072;6.678;2024-03-25T03:49:09;4.10;99.90
3001;DHT22;1510;51.072;6.678;2024-03-25T03:51:37;4.10;99.90
3001;DHT22;1510;51.072;6.678;2024-03-25T03:54:03;4.10;99.90
3001;DHT22;1510;51.072;6.678;2024-03-25T03:56:30;4.10;99.90
3001;DHT22;1510;51.072;6.678;2024-03-25T03:58:55;4.10;99.90
3001;DHT22;1510;51.072;6.678;2024-03-25T04:01:22;4.00;99.90
3001;DHT22;1510;51.072;6.678;2024-03-25T04:03:48;4.00;99.90
3001;DHT22;1510;51.072;6.678;2024-03-25T04:06:15;4.00;99.90
3001;DHT22;1510;51.072;6.678;2024-03-25T04:08:42;3.90;99.90
3001;DHT22;1510;51.072;6.678;2024-03-25T04:11:10;4.00;99.90
3001;DHT22;1510;51.072;6.678;2024-03-25T04:13:36;3.90;99.90
3001;DHT22;1510;51.072;6.678;2024-03-25T04:16:04;3.90;99.90
3001;DHT22;1510;51.072;6.678;2024-03-25T04:18:30;3.80;99.90
3001;DHT22;1510;51.072;6.678;2024-03-25T04:20:57;3.80;99.90
3001;DHT22;1510;51.072;6.678;2024-03-25T04:23:23;3.70;99.90
3001;DHT22;1510;51.072;6.678;2024-03-25T04:25:52;3.70;99.90
3001;DHT22;1510;51.072;6.678;2024-03-25T04:28:18;3.60;99.90
3001;DHT22;1510;51.072;6.678;2024-03-25T04:30:50;3.50;99.90
3001;DHT22;1510;51.072;6.678;2024-03-25T04:33:17;3.30;99.90
3001;DHT22;1510;51.072;6.678;2024-03-25T04:35:44;3.20;99.90
3001;DHT22;1510;51.072;6.678;2024-03-25T04:38:10;3.00;99.90
3001;DHT22;1510;51.072;6.678;2024-03-25T04:40:36;3.00;99.90
3001;DHT22;1510;51.072;6.678;2024-03-25T04:43:04;2.90;99.90
3001;DHT22;1510;51.072;6.678;2024-03-25T04:45:29;3.00;99.90
3001;DHT22;1510;51.072;6.678;2024-03-25T04:47:55;3.10;99.90
3001;DHT22;1510;51.072;6.678;2024-03-25T04:50:21;3.10;99.90
3001;DHT22;1510;51.072;6.678;2024-03-25T04:52:47;3.00;99.90
3001;DHT22;1510;51.072;6.678;2024-03-25T04:55:13;3.00;99.90
3001;DHT22;1510;51.072;6.678;2024-03-25T04:57:39;2.90;99.90
3001;DHT22;1510;51.072;6.678;2024-03-25T05:00:07;2.80;99.90
3001;DHT22;1510;51.072;6.678;2024-03-25T05:02:34;2.60;99.90
3001;DHT22;1510;51.072;6.678;2024-03-25T05:05:01;2.40;99.90
3001;DHT22;1510;51.072;6.678;2024-03-25T05:07:26;2.30;99.90
3001;DHT22;1510;51.072;6.678;2024-03-25T05:09:52;2.10;99.90
3001;DHT22;1510;51.072;6.678;2024-03-25T05:12:18;2.00;99.90
3001;DHT22;1510;51.072;6.678;2024-03-25T05:14:44;1.90;99.90
3001;DHT22;1510;51.072;6.678;2024-03-25T05:17:11;1.90;99.90
3001;DHT22;1510;51.072;6.678;2024-03-25T05:19:37;1.80;99.90
3001;DHT22;1510;51.072;6.678;2024-03-25T05:22:03;1.80;99.90
3001;DHT22;1510;51.072;6.678;2024-03-25T05:24:29;1.80;99.90
3001;DHT22;1510;51.072;6.678;2024-03-25T05:26:55;1.70;99.90
3001;DHT22;1510;51.072;6.678;2024-03-25T05:29:20;1.70;99.90
3001;DHT22;1510;51.072;6.678;2024-03-25T05:31:56;1.70;99.90
3001;DHT22;1510;51.072;6.678;2024-03-25T05:34:24;1.70;99.90
3001;DHT22;1510;51.072;6.678;2024-03-25T05:36:50;1.80;99.90
3001;DHT22;1510;51.072;6.678;2024-03-25T05:39:16;1.70;99.90
3001;DHT22;1510;51.072;6.678;2024-03-25T05:41:42;1.70;99.90
3001;DHT22;1510;51.072;6.678;2024-03-25T05:44:08;1.70;99.90
3001;DHT22;1510;51.072;6.678;2024-03-25T05:46:33;1.70;99.90
3001;DHT22;1510;51.072;6.678;2024-03-25T05:49:01;1.80;99.90
3001;DHT22;1510;51.072;6.678;2024-03-25T05:51:29;1.90;99.90
3001;DHT22;1510;51.072;6.678;2024-03-25T05:53:55;2.00;99.90
3001;DHT22;1510;51.072;6.678;2024-03-25T05:56:26;2.10;99.90
3001;DHT22;1510;51.072;6.678;2024-03-25T05:58:52;2.20;99.90
3001;DHT22;1510;51.072;6.678;2024-03-25T06:01:18;2.20;99.90
3001;DHT22;1510;51.072;6.678;2024-03-25T06:03:44;2.20;99.90
3001;DHT22;1510;51.072;6.678;2024-03-25T06:06:10;2.20;99.90
3001;DHT22;1510;51.072;6.678;2024-03-25T06:08:37;2.30;99.90
3001;DHT22;1510;51.072;6.678;2024-03-25T06:11:03;2.30;99.90
3001;DHT22;1510;51.072;6.678;2024-03-25T06:13:29;2.40;99.90
3001;DHT22;1510;51.072;6.678;2024-03-25T06:15:55;2.50;99.90
3001;DHT22;1510;51.072;6.678;2024-03-25T06:18:21;2.60;99.90
3001;DHT22;1510;51.072;6.678;2024-03-25T06:20:47;2.60;99.90
3001;DHT22;1510;51.072;6.678;2024-03-25T06:23:22;2.70;99.90
3001;DHT22;1510;51.072;6.678;2024-03-25T06:25:50;2.80;99.90
3001;DHT22;1510;51.072;6.678;2024-03-25T06:28:17;3.00;99.90
3001;DHT22;1510;51.072;6.678;2024-03-25T06:30:43;3.10;99.90
3001;DHT22;1510;51.072;6.678;2024-03-25T06:33:38;3.20;99.90
3001;DHT22;1510;51.072;6.678;2024-03-25T06:36:23;3.30;99.90
3001;DHT22;1510;51.072;6.678;2024-03-25T06:38:49;3.50;99.90
3001;DHT22;1510;51.072;6.678;2024-03-25T06:41:16;3.60;99.90
3001;DHT22;1510;51.072;6.678;2024-03-25T06:43:42;3.60;99.90
3001;DHT22;1510;51.072;6.678;2024-03-25T06:46:08;3.70;99.90
3001;DHT22;1510;51.072;6.678;2024-03-25T06:48:34;3.70;99.90
3001;DHT22;1510;51.072;6.678;2024-03-25T06:51:00;3.80;99.90
3001;DHT22;1510;51.072;6.678;2024-03-25T06:53:27;3.90;99.90
3001;DHT22;1510;51.072;6.678;2024-03-25T06:55:54;3.90;99.90
3001;DHT22;1510;51.072;6.678;2024-03-25T06:58:23;3.90;99.90
3001;DHT22;1510;51.072;6.678;2024-03-25T07:00:49;4.00;99.90
3001;DHT22;1510;51.072;6.678;2024-03-25T07:03:15;4.00;99.90
3001;DHT22;1510;51.072;6.678;2024-03-25T07:05:43;4.10;99.90
3001;DHT22;1510;51.072;6.678;2024-03-25T07:08:09;4.20;99.90
3001;DHT22;1510;51.072;6.678;2024-03-25T07:10:35;4.30;99.90
3001;DHT22;1510;51.072;6.678;2024-03-25T07:13:01;4.40;99.90
3001;DHT22;1510;51.072;6.678;2024-03-25T07:15:28;4.50;99.90
3001;DHT22;1510;51.072;6.678;2024-03-25T07:17:55;4.60;99.90
3001;DHT22;1510;51.072;6.678;2024-03-25T07:20:20;4.70;99.90
3001;DHT22;1510;51.072;6.678;2024-03-25T07:22:46;4.90;99.90
3001;DHT22;1510;51.072;6.678;2024-03-25T07:25:12;4.90;99.90
3001;DHT22;1510;51.072;6.678;2024-03-25T07:27:38;5.10;99.90
3001;DHT22;1510;51.072;6.678;2024-03-25T07:30:05;5.20;99.90
3001;DHT22;1510;51.072;6.678;2024-03-25T07:32:33;5.20;99.90
3001;DHT22;1510;51.072;6.678;2024-03-25T07:34:58;5.30;99.90
3001;DHT22;1510;51.072;6.678;2024-03-25T07:37:24;5.40;99.90
3001;DHT22;1510;51.072;6.678;2024-03-25T07:39:50;5.50;99.90
3001;DHT22;1510;51.072;6.678;2024-03-25T07:42:16;5.60;99.90
3001;DHT22;1510;51.072;6.678;2024-03-25T07:44:42;5.70;99.90
3001;DHT22;1510;51.072;6.678;2024-03-25T07:47:08;5.80;99.90
3001;DHT22;1510;51.072;6.678;2024-03-25T07:49:35;5.90;99.90
3001;DHT22;1510;51.072;6.678;2024-03-25T07:52:02;6.00;99.90
3001;DHT22;1510;51.072;6.678;2024-03-25T07:54:28;6.10;99.90
3001;DHT22;1510;51.072;6.678;2024-03-25T07:56:54;6.20;99.90
3001;DHT22;1510;51.072;6.678;2024-03-25T07:59:20;6.30;99.90
3001;DHT22;1510;51.072;6.678;2024-03-25T08:01:46;6.40;99.90
3001;DHT22;1510;51.072;6.678;2024-03-25T08:04:12;6.50;99.90
3001;DHT22;1510;51.072;6.678;2024-03-25T08:06:39;6.70;99.90
3001;DHT22;1510;51.072;6.678;2024-03-25T08:09:05;6.80;99.90
3001;DHT22;1510;51.072;6.678;2024-03-25T08:11:31;6.90;99.90
3001;DHT22;1510;51.072;6.678;2024-03-25T08:13:56;7.00;99.90
3001;DHT22;1510;51.072;6.678;2024-03-25T08:16:22;7.20;99.90
3001;DHT22;1510;51.072;6.678;2024-03-25T08:18:48;7.40;99.90
3001;DHT22;1510;51.072;6.678;2024-03-25T08:21:14;7.70;97.30
3001;DHT22;1510;51.072;6.678;2024-03-25T08:23:44;7.80;97.10
3001;DHT22;1510;51.072;6.678;2024-03-25T08:26:10;8.10;96.30
3001;DHT22;1510;51.072;6.678;2024-03-25T08:28:35;8.40;94.10
3001;DHT22;1510;51.072;6.678;2024-03-25T08:31:01;8.60;90.90
3001;DHT22;1510;51.072;6.678;2024-03-25T08:33:27;8.80;90.90
3001;DHT22;1510;51.072;6.678;2024-03-25T08:35:54;9.10;91.10
3001;DHT22;1510;51.072;6.678;2024-03-25T08:38:20;9.30;91.10
3001;DHT22;1510;51.072;6.678;2024-03-25T08:40:47;9.30;91.10
3001;DHT22;1510;51.072;6.678;2024-03-25T08:43:13;9.40;88.00
3001;DHT22;1510;51.072;6.678;2024-03-25T08:45:41;9.50;77.50
3001;DHT22;1510;51.072;6.678;2024-03-25T08:48:07;9.60;77.50
3001;DHT22;1510;51.072;6.678;2024-03-25T08:50:33;9.60;77.50
3001;DHT22;1510;51.072;6.678;2024-03-25T08:52:59;10.00;76.90
3001;DHT22;1510;51.072;6.678;2024-03-25T08:55:25;10.10;77.00
3001;DHT22;1510;51.072;6.678;2024-03-25T08:57:52;10.20;74.70
3001;DHT22;1510;51.072;6.678;2024-03-25T09:00:18;10.40;68.90
3001;DHT22;1510;51.072;6.678;2024-03-25T09:02:44;10.60;61.60
3001;DHT22;1510;51.072;6.678;2024-03-25T09:05:10;10.80;61.70
3001;DHT22;1510;51.072;6.678;2024-03-25T09:07:36;11.10;62.00
3001;DHT22;1510;51.072;6.678;2024-03-25T09:10:02;11.60;62.20
3001;DHT22;1510;51.072;6.678;2024-03-25T09:12:47;11.80;45.60
3001;DHT22;1510;51.072;6.678;2024-03-25T09:15:14;12.30;52.00
3001;DHT22;1510;51.072;6.678;2024-03-25T09:17:40;12.20;45.90
3001;DHT22;1510;51.072;6.678;2024-03-25T09:20:07;12.40;46.10
3001;DHT22;1510;51.072;6.678;2024-03-25T09:22:33;12.90;46.50
3001;DHT22;1510;51.072;6.678;2024-03-25T09:24:59;13.20;38.00
3001;DHT22;1510;51.072;6.678;2024-03-25T09:27:25;13.40;34.10
3001;DHT22;1510;51.072;6.678;2024-03-25T09:29:51;13.60;29.60
3001;DHT22;1510;51.072;6.678;2024-03-25T09:32:19;14.00;29.80
3001;DHT22;1510;51.072;6.678;2024-03-25T09:34:44;14.50;23.10
3001;DHT22;1510;51.072;6.678;2024-03-25T09:37:10;15.20;16.30
3001;DHT22;1510;51.072;6.678;2024-03-25T09:39:36;15.30;14.40
3001;DHT22;1510;51.072;6.678;2024-03-25T09:42:06;15.70;16.30
3001;DHT22;1510;51.072;6.678;2024-03-25T09:44:33;16.10;9.20
3001;DHT22;1510;51.072;6.678;2024-03-25T09:47:00;15.80;1.50
3001;DHT22;1510;51.072;6.678;2024-03-25T09:49:28;16.10;1.70
3001;DHT22;1510;51.072;6.678;2024-03-25T09:51:55;15.90;1.60
3001;DHT22;1510;51.072;6.678;2024-03-25T09:54:21;16.20;1.80
3001;DHT22;1510;51.072;6.678;2024-03-25T09:56:48;15.80;1.00
3001;DHT22;1510;51.072;6.678;2024-03-25T09:59:15;16.30;1.90
3001;DHT22;1510;51.072;6.678;2024-03-25T10:01:41;16.50;1.00
3001;DHT22;1510;51.072;6.678;2024-03-25T10:04:08;16.30;1.00
3001;DHT22;1510;51.072;6.678;2024-03-25T10:06:35;16.70;1.00
3001;DHT22;1510;51.072;6.678;2024-03-25T10:09:05;16.90;1.00
3001;DHT22;1510;51.072;6.678;2024-03-25T10:11:31;17.00;1.00
3001;DHT22;1510;51.072;6.678;2024-03-25T10:13:58;16.80;1.00
3001;DHT22;1510;51.072;6.678;2024-03-25T10:16:23;17.30;1.00
3001;DHT22;1510;51.072;6.678;2024-03-25T10:18:49;17.40;1.00
3001;DHT22;1510;51.072;6.678;2024-03-25T10:21:19;17.30;1.00
3001;DHT22;1510;51.072;6.678;2024-03-25T10:23:47;17.70;1.00
3001;DHT22;1510;51.072;6.678;2024-03-25T10:26:26;17.80;1.00
3001;DHT22;1510;51.072;6.678;2024-03-25T10:28:59;17.70;1.00
3001;DHT22;1510;51.072;6.678;2024-03-25T10:31:26;17.70;1.00
3001;DHT22;1510;51.072;6.678;2024-03-25T10:33:52;17.60;1.00
3001;DHT22;1510;51.072;6.678;2024-03-25T10:36:19;17.60;1.00
3001;DHT22;1510;51.072;6.678;2024-03-25T10:38:49;16.90;1.00
3001;DHT22;1510;51.072;6.678;2024-03-25T10:41:18;16.60;1.00
3001;DHT22;1510;51.072;6.678;2024-03-25T10:43:46;16.80;1.00
3001;DHT22;1510;51.072;6.678;2024-03-25T10:46:17;17.20;1.00
3001;DHT22;1510;51.072;6.678;2024-03-25T10:48:48;17.50;1.00
3001;DHT22;1510;51.072;6.678;2024-03-25T10:51:17;18.10;1.00
3001;DHT22;1510;51.072;6.678;2024-03-25T10:53:44;18.20;1.00
3001;DHT22;1510;51.072;6.678;2024-03-25T10:56:14;17.80;1.00
3001;DHT22;1510;51.072;6.678;2024-03-25T10:58:40;18.00;1.00
3001;DHT22;1510;51.072;6.678;2024-03-25T11:01:07;17.90;1.00
3001;DHT22;1510;51.072;6.678;2024-03-25T11:03:34;18.00;1.00
3001;DHT22;1510;51.072;6.678;2024-03-25T11:06:01;18.80;1.00
3001;DHT22;1510;51.072;6.678;2024-03-25T11:08:31;18.60;1.00
3001;DHT22;1510;51.072;6.678;2024-03-25T11:10:57;19.30;1.00
3001;DHT22;1510;51.072;6.678;2024-03-25T11:13:27;19.70;1.00
3001;DHT22;1510;51.072;6.678;2024-03-25T11:15:53;19.90;1.00
3001;DHT22;1510;51.072;6.678;2024-03-25T11:18:24;20.00;1.00
3001;DHT22;1510;51.072;6.678;2024-03-25T11:21:00;19.80;1.00
3001;DHT22;1510;51.072;6.678;2024-03-25T11:23:26;19.30;1.00
3001;DHT22;1510;51.072;6.678;2024-03-25T11:25:55;19.60;1.00
3001;DHT22;1510;51.072;6.678;2024-03-25T11:28:28;18.90;1.00
3001;DHT22;1510;51.072;6.678;2024-03-25T11:30:55;19.40;1.00
3001;DHT22;1510;51.072;6.678;2024-03-25T11:33:21;20.10;1.00
3001;DHT22;1510;51.072;6.678;2024-03-25T11:35:47;19.00;1.00
3001;DHT22;1510;51.072;6.678;2024-03-25T11:38:13;18.70;1.00
3001;DHT22;1510;51.072;6.678;2024-03-25T11:40:42;18.60;1.00
3001;DHT22;1510;51.072;6.678;2024-03-25T11:43:09;19.40;1.00
3001;DHT22;1510;51.072;6.678;2024-03-25T11:45:36;19.60;1.00
3001;DHT22;1510;51.072;6.678;2024-03-25T11:48:02;20.20;1.00
3001;DHT22;1510;51.072;6.678;2024-03-25T11:50:29;20.10;1.00
3001;DHT22;1510;51.072;6.678;2024-03-25T11:52:55;19.20;1.00
3001;DHT22;1510;51.072;6.678;2024-03-25T11:55:21;19.10;1.00
3001;DHT22;1510;51.072;6.678;2024-03-25T11:57:54;18.50;1.00
3001;DHT22;1510;51.072;6.678;2024-03-25T12:00:20;19.10;1.00
3001;DHT22;1510;51.072;6.678;2024-03-25T12:02:47;19.30;1.00
3001;DHT22;1510;51.072;6.678;2024-03-25T12:05:13;19.90;1.00
3001;DHT22;1510;51.072;6.678;2024-03-25T12:07:40;20.30;1.00
3001;DHT22;1510;51.072;6.678;2024-03-25T12:10:06;21.10;1.00
3001;DHT22;1510;51.072;6.678;2024-03-25T12:12:51;20.90;1.00
3001;DHT22;1510;51.072;6.678;2024-03-25T12:15:17;20.50;1.00
3001;DHT22;1510;51.072;6.678;2024-03-25T12:17:43;20.00;1.00
3001;DHT22;1510;51.072;6.678;2024-03-25T12:20:11;20.40;1.00
3001;DHT22;1510;51.072;6.678;2024-03-25T12:22:37;20.20;1.00
3001;DHT22;1510;51.072;6.678;2024-03-25T12:25:04;19.80;1.00
3001;DHT22;1510;51.072;6.678;2024-03-25T12:27:31;19.70;1.00
3001;DHT22;1510;51.072;6.678;2024-03-25T12:29:58;20.70;1.00
3001;DHT22;1510;51.072;6.678;2024-03-25T12:32:40;21.10;1.00
3001;DHT22;1510;51.072;6.678;2024-03-25T12:35:07;20.50;1.00
3001;DHT22;1510;51.072;6.678;2024-03-25T12:37:36;20.30;1.00
3001;DHT22;1510;51.072;6.678;2024-03-25T12:40:04;22.10;1.00
3001;DHT22;1510;51.072;6.678;2024-03-25T12:42:30;22.10;1.00
3001;DHT22;1510;51.072;6.678;2024-03-25T12:44:56;22.80;1.00
3001;DHT22;1510;51.072;6.678;2024-03-25T12:47:22;21.50;1.00
3001;DHT22;1510;51.072;6.678;2024-03-25T12:49:48;20.50;1.00
3001;DHT22;1510;51.072;6.678;2024-03-25T12:52:14;20.70;1.00
3001;DHT22;1510;51.072;6.678;2024-03-25T12:54:41;20.80;1.00
3001;DHT22;1510;51.072;6.678;2024-03-25T12:57:07;20.70;1.00
3001;DHT22;1510;51.072;6.678;2024-03-25T12:59:33;20.20;1.00
3001;DHT22;1510;51.072;6.678;2024-03-25T13:01:59;19.90;1.00
3001;DHT22;1510;51.072;6.678;2024-03-25T13:04:26;20.20;1.00
3001;DHT22;1510;51.072;6.678;2024-03-25T13:06:52;21.00;1.00
3001;DHT22;1510;51.072;6.678;2024-03-25T13:09:18;19.70;1.00
3001;DHT22;1510;51.072;6.678;2024-03-25T13:11:45;20.70;1.00
3001;DHT22;1510;51.072;6.678;2024-03-25T13:14:12;21.50;1.00
3001;DHT22;1510;51.072;6.678;2024-03-25T13:16:38;20.30;1.00
3001;DHT22;1510;51.072;6.678;2024-03-25T13:19:04;21.20;1.00
3001;DHT22;1510;51.072;6.678;2024-03-25T13:21:30;21.00;1.00
3001;DHT22;1510;51.072;6.678;2024-03-25T13:23:56;20.70;1.00
3001;DHT22;1510;51.072;6.678;2024-03-25T13:26:22;21.20;1.00
3001;DHT22;1510;51.072;6.678;2024-03-25T13:28:49;20.80;1.00
3001;DHT22;1510;51.072;6.678;2024-03-25T13:31:15;20.90;1.00
3001;DHT22;1510;51.072;6.678;2024-03-25T13:33:41;21.20;1.00
3001;DHT22;1510;51.072;6.678;2024-03-25T13:36:07;21.60;1.00
3001;DHT22;1510;51.072;6.678;2024-03-25T13:38:33;21.90;1.00
3001;DHT22;1510;51.072;6.678;2024-03-25T13:40:59;21.60;1.00
3001;DHT22;1510;51.072;6.678;2024-03-25T13:43:25;21.00;1.00
3001;DHT22;1510;51.072;6.678;2024-03-25T13:45:53;21.10;1.00
3001;DHT22;1510;51.072;6.678;2024-03-25T13:48:19;22.00;1.00
3001;DHT22;1510;51.072;6.678;2024-03-25T13:50:45;22.40;1.00
3001;DHT22;1510;51.072;6.678;2024-03-25T13:53:11;22.20;1.00
3001;DHT22;1510;51.072;6.678;2024-03-25T13:55:37;22.00;1.00
3001;DHT22;1510;51.072;6.678;2024-03-25T13:58:03;21.40;1.00
3001;DHT22;1510;51.072;6.678;2024-03-25T14:00:29;21.50;1.00
3001;DHT22;1510;51.072;6.678;2024-03-25T14:02:56;21.60;1.00
3001;DHT22;1510;51.072;6.678;2024-03-25T14:05:22;21.20;1.00
3001;DHT22;1510;51.072;6.678;2024-03-25T14:07:48;20.30;1.00
3001;DHT22;1510;51.072;6.678;2024-03-25T14:10:14;21.20;1.00
3001;DHT22;1510;51.072;6.678;2024-03-25T14:12:40;20.40;1.00
3001;DHT22;1510;51.072;6.678;2024-03-25T14:15:07;20.20;1.00
3001;DHT22;1510;51.072;6.678;2024-03-25T14:17:33;21.00;1.00
3001;DHT22;1510;51.072;6.678;2024-03-25T14:20:00;20.80;1.00
3001;DHT22;1510;51.072;6.678;2024-03-25T14:22:26;22.00;1.00
3001;DHT22;1510;51.072;6.678;2024-03-25T14:24:52;20.90;1.00
3001;DHT22;1510;51.072;6.678;2024-03-25T14:27:18;20.40;1.00
3001;DHT22;1510;51.072;6.678;2024-03-25T14:29:44;19.20;1.00
3001;DHT22;1510;51.072;6.678;2024-03-25T14:32:10;20.10;1.00
3001;DHT22;1510;51.072;6.678;2024-03-25T14:34:36;21.20;1.00
3001;DHT22;1510;51.072;6.678;2024-03-25T14:37:03;20.60;1.00
3001;DHT22;1510;51.072;6.678;2024-03-25T14:39:29;20.40;1.00
3001;DHT22;1510;51.072;6.678;2024-03-25T14:41:55;20.70;1.00
3001;DHT22;1510;51.072;6.678;2024-03-25T14:44:20;21.30;1.00
3001;DHT22;1510;51.072;6.678;2024-03-25T14:46:46;21.60;1.00
3001;DHT22;1510;51.072;6.678;2024-03-25T14:49:12;22.10;1.00
3001;DHT22;1510;51.072;6.678;2024-03-25T14:51:38;20.00;1.00
3001;DHT22;1510;51.072;6.678;2024-03-25T14:54:06;20.00;1.00
3001;DHT22;1510;51.072;6.678;2024-03-25T14:56:32;20.50;1.00
3001;DHT22;1510;51.072;6.678;2024-03-25T14:58:58;20.40;1.00
3001;DHT22;1510;51.072;6.678;2024-03-25T15:01:24;20.90;1.00
3001;DHT22;1510;51.072;6.678;2024-03-25T15:03:50;20.70;1.00
3001;DHT22;1510;51.072;6.678;2024-03-25T15:06:16;21.00;1.00
3001;DHT22;1510;51.072;6.678;2024-03-25T15:08:42;21.10;1.00
3001;DHT22;1510;51.072;6.678;2024-03-25T15:11:09;21.00;1.00
3001;DHT22;1510;51.072;6.678;2024-03-25T15:13:35;21.70;1.00
3001;DHT22;1510;51.072;6.678;2024-03-25T15:16:03;21.60;1.00
3001;DHT22;1510;51.072;6.678;2024-03-25T15:18:29;21.50;1.00
3001;DHT22;1510;51.072;6.678;2024-03-25T15:21:05;21.10;1.00
3001;DHT22;1510;51.072;6.678;2024-03-25T15:23:31;20.90;1.00
3001;DHT22;1510;51.072;6.678;2024-03-25T15:25:57;20.60;1.00
3001;DHT22;1510;51.072;6.678;2024-03-25T15:28:25;20.10;1.00
3001;DHT22;1510;51.072;6.678;2024-03-25T15:30:51;20.30;1.00
3001;DHT22;1510;51.072;6.678;2024-03-25T15:33:17;20.50;1.00
3001;DHT22;1510;51.072;6.678;2024-03-25T15:35:43;20.30;1.00
3001;DHT22;1510;51.072;6.678;2024-03-25T15:38:09;18.50;1.00
3001;DHT22;1510;51.072;6.678;2024-03-25T15:40:35;19.20;1.00
3001;DHT22;1510;51.072;6.678;2024-03-25T15:43:01;18.70;1.00
3001;DHT22;1510;51.072;6.678;2024-03-25T15:45:28;18.00;1.00
3001;DHT22;1510;51.072;6.678;2024-03-25T15:47:54;17.80;1.00
3001;DHT22;1510;51.072;6.678;2024-03-25T15:50:20;18.60;1.00
3001;DHT22;1510;51.072;6.678;2024-03-25T15:52:46;18.80;1.00
3001;DHT22;1510;51.072;6.678;2024-03-25T15:55:12;18.60;1.00
3001;DHT22;1510;51.072;6.678;2024-03-25T15:57:38;17.50;1.00
3001;DHT22;1510;51.072;6.678;2024-03-25T16:00:05;17.90;1.00
3001;DHT22;1510;51.072;6.678;2024-03-25T16:02:32;18.40;1.00
3001;DHT22;1510;51.072;6.678;2024-03-25T16:04:58;18.80;1.00
3001;DHT22;1510;51.072;6.678;2024-03-25T16:07:24;18.80;1.00
3001;DHT22;1510;51.072;6.678;2024-03-25T16:09:50;18.40;1.00
3001;DHT22;1510;51.072;6.678;2024-03-25T16:12:16;18.40;1.00
3001;DHT22;1510;51.072;6.678;2024-03-25T16:14:42;18.50;1.00